createdAt,value
2022-09-01T00:02:03.885Z,2.60
2022-09-01T00:04:38.838Z,3.13
2022-09-01T00:07:11.075Z,2.80
2022-09-01T00:09:41.685Z,2.63
2022-09-01T00:12:13.246Z,2.95
2022-09-01T00:14:43.838Z,3.10
2022-09-01T00:17:15.000Z,2.97
2022-09-01T00:19:47.860Z,2.83
2022-09-01T00:22:17.836Z,3.33
2022-09-01T00:24:48.062Z,2.65
2022-09-01T00:27:18.588Z,2.90
2022-09-01T00:29:49.227Z,2.72
2022-09-01T00:32:19.853Z,3.05
2022-09-01T00:34:52.377Z,2.97
2022-09-01T00:37:22.430Z,2.90
2022-09-01T00:39:52.647Z,3.13
2022-09-01T00:42:23.144Z,3.45
2022-09-01T00:44:53.117Z,3.33
2022-09-01T00:47:23.091Z,2.90
2022-09-01T00:49:56.273Z,2.80
2022-09-01T00:52:30.897Z,2.38
2022-09-01T00:55:02.544Z,2.90
2022-09-01T00:57:32.817Z,2.80
2022-09-01T01:00:08.601Z,3.17
2022-09-01T01:02:38.997Z,2.65
2022-09-01T01:05:14.349Z,2.75
2022-09-01T01:07:47.690Z,2.80
2022-09-01T01:10:18.948Z,2.90
2022-09-01T01:12:51.880Z,2.78
2022-09-01T01:15:22.667Z,2.83
2022-09-01T01:17:53.084Z,2.80
2022-09-01T01:20:41.645Z,3.20
2022-09-01T01:23:19.616Z,2.90
2022-09-01T01:25:53.817Z,2.75
2022-09-01T01:28:27.995Z,3.92
2022-09-01T01:31:01.743Z,3.28
2022-09-01T01:33:33.849Z,3.45
2022-09-01T01:36:08.001Z,3.13
2022-09-01T01:38:38.297Z,3.60
2022-09-01T01:41:11.444Z,3.33
2022-09-01T01:43:42.853Z,3.40
2022-09-01T01:46:14.488Z,3.13
2022-09-01T01:48:47.133Z,2.58
2022-09-01T01:51:21.281Z,3.42
2022-09-01T01:53:52.811Z,2.80
2022-09-01T01:56:26.824Z,3.03
2022-09-01T01:58:57.841Z,3.05
2022-09-01T02:01:32.158Z,3.38
2022-09-01T02:04:04.316Z,3.60
2022-09-01T02:06:36.993Z,3.10
2022-09-01T02:09:08.236Z,3.20
2022-09-01T02:11:41.134Z,2.92
2022-09-01T02:14:13.506Z,3.55
2022-09-01T02:16:44.376Z,2.60
2022-09-01T02:19:14.751Z,3.25
2022-09-01T02:21:49.030Z,3.58
2022-09-01T02:24:19.635Z,3.08
2022-09-01T02:26:52.462Z,3.42
2022-09-01T02:29:29.429Z,3.47
2022-09-01T02:32:00.068Z,3.05
2022-09-01T02:34:30.883Z,3.58
2022-09-01T02:37:01.878Z,4.18
2022-09-01T02:39:34.442Z,3.28
2022-09-01T02:42:08.487Z,3.10
2022-09-01T02:44:41.379Z,3.00
2022-09-01T02:47:11.777Z,3.10
2022-09-01T02:49:42.618Z,3.30
2022-09-01T02:52:15.923Z,2.92
2022-09-01T02:54:47.137Z,3.20
2022-09-01T02:57:23.003Z,3.25
2022-09-01T02:59:55.276Z,3.40
2022-09-01T03:02:26.895Z,2.95
2022-09-01T03:04:57.439Z,3.80
2022-09-01T03:07:27.820Z,2.95
2022-09-01T03:09:57.839Z,3.45
2022-09-01T03:12:30.692Z,2.65
2022-09-01T03:15:01.036Z,2.40
2022-09-01T03:17:31.261Z,2.70
2022-09-01T03:20:01.275Z,2.70
2022-09-01T03:22:31.277Z,2.92
2022-09-01T03:25:01.485Z,2.55
2022-09-01T03:27:34.121Z,2.58
2022-09-01T03:30:04.361Z,2.65
2022-09-01T03:32:34.350Z,2.65
2022-09-01T03:35:04.349Z,4.00
2022-09-01T03:37:34.304Z,2.72
2022-09-01T03:40:05.103Z,2.63
2022-09-01T03:42:39.468Z,2.83
2022-09-01T03:45:12.781Z,2.55
2022-09-01T03:47:44.995Z,2.70
2022-09-01T03:50:20.272Z,3.22
2022-09-01T03:52:53.189Z,3.13
2022-09-01T03:55:27.373Z,2.67
2022-09-01T03:58:03.279Z,3.05
2022-09-01T04:00:35.905Z,3.15
2022-09-01T04:03:07.725Z,2.60
2022-09-01T04:05:38.538Z,2.70
2022-09-01T04:08:11.293Z,2.80
2022-09-01T04:10:54.316Z,2.85
2022-09-01T04:13:30.366Z,2.88
2022-09-01T04:16:01.189Z,2.38
2022-09-01T04:18:30.266Z,3.22
2022-09-01T04:21:01.188Z,2.83
2022-09-01T04:23:33.562Z,3.38
2022-09-01T04:26:13.213Z,3.20
2022-09-01T04:28:50.370Z,2.92
2022-09-01T04:31:23.041Z,2.78
2022-09-01T04:36:27.468Z,2.92
2022-09-01T04:39:00.626Z,2.35
2022-09-01T04:41:33.472Z,2.42
2022-09-01T04:44:10.153Z,3.35
2022-09-01T04:46:46.520Z,2.67
2022-09-01T04:49:22.187Z,2.90
2022-09-01T04:51:54.480Z,2.35
2022-09-01T04:54:26.991Z,2.53
2022-09-01T04:56:56.958Z,2.30
2022-09-01T04:59:30.644Z,2.85
2022-09-01T05:02:03.433Z,2.25
2022-09-01T05:04:35.860Z,2.38
2022-09-01T05:07:08.499Z,2.83
2022-09-01T05:09:41.458Z,1.85
2022-09-01T05:12:35.555Z,2.38
2022-09-01T05:15:10.207Z,2.42
2022-09-01T05:17:40.493Z,2.63
2022-09-01T05:20:12.354Z,2.88
2022-09-01T05:22:44.185Z,3.45
2022-09-01T05:25:14.629Z,3.58
2022-09-01T05:27:49.732Z,3.00
2022-09-01T05:30:24.101Z,2.22
2022-09-01T05:32:55.118Z,2.42
2022-09-01T05:35:32.892Z,2.88
2022-09-01T05:38:03.678Z,2.15
2022-09-01T05:40:40.999Z,2.47
2022-09-01T05:43:13.488Z,2.05
2022-09-01T05:46:05.698Z,2.67
2022-09-01T05:48:39.857Z,2.40
2022-09-01T05:51:40.423Z,2.35
2022-09-01T05:54:08.129Z,2.77
2022-09-01T05:56:44.649Z,2.50
2022-09-01T05:59:25.147Z,2.65
2022-09-01T06:02:04.354Z,2.22
2022-09-01T06:04:35.585Z,2.25
2022-09-01T06:07:09.010Z,2.63
2022-09-01T06:09:43.851Z,2.40
2022-09-01T06:12:18.547Z,2.22
2022-09-01T06:14:50.005Z,2.40
2022-09-01T06:17:25.706Z,2.08
2022-09-01T06:19:57.765Z,2.05
2022-09-01T06:22:29.630Z,2.15
2022-09-01T06:25:03.111Z,2.13
2022-09-01T06:27:44.469Z,2.25
2022-09-01T06:30:23.088Z,2.63
2022-09-01T06:33:01.243Z,1.95
2022-09-01T06:35:32.468Z,2.25
2022-09-01T06:38:02.877Z,2.30
2022-09-01T06:40:43.350Z,2.03
2022-09-01T06:43:17.503Z,2.17
2022-09-01T06:45:54.794Z,2.30
2022-09-01T06:48:30.913Z,2.70
2022-09-01T06:51:15.784Z,2.47
2022-09-01T06:53:50.128Z,2.05
2022-09-01T06:56:21.183Z,2.22
2022-09-01T06:58:54.397Z,2.08
2022-09-01T07:01:27.601Z,2.50
2022-09-01T07:04:01.165Z,2.13
2022-09-01T07:06:59.390Z,2.00
2022-09-01T07:10:05.935Z,2.08
2022-09-01T07:13:05.393Z,1.83
2022-09-01T07:18:30.999Z,1.98
2022-09-01T07:21:36.330Z,1.83
2022-09-01T07:24:10.935Z,2.03
2022-09-01T07:26:47.437Z,1.90
2022-09-01T07:29:21.817Z,1.90
2022-09-01T07:34:47.630Z,2.05
2022-09-01T07:43:46.011Z,1.50
2022-09-01T07:46:37.409Z,1.65
2022-09-01T07:52:02.125Z,1.80
2022-09-01T07:54:37.333Z,1.70
2022-09-01T07:57:07.893Z,1.20
2022-09-01T07:59:39.199Z,1.15
2022-09-01T08:02:33.029Z,1.13
2022-09-01T08:05:03.982Z,1.20
2022-09-01T08:07:51.763Z,1.60
2022-09-01T08:10:25.030Z,1.00
2022-09-01T08:12:56.703Z,1.15
2022-09-01T08:18:18.404Z,0.82
2022-09-01T08:20:48.855Z,1.40
2022-09-01T08:23:58.300Z,1.27
2022-09-01T08:26:30.998Z,1.13
2022-09-01T08:29:01.172Z,1.35
2022-09-01T08:31:37.307Z,1.10
2022-09-01T08:34:08.884Z,1.27
2022-09-01T08:36:39.628Z,0.70
2022-09-01T08:39:10.205Z,1.38
2022-09-01T08:41:47.476Z,1.00
2022-09-01T08:44:31.644Z,1.17
2022-09-01T08:47:07.738Z,0.95
2022-09-01T08:49:46.186Z,1.10
2022-09-01T08:52:32.105Z,1.15
2022-09-01T08:55:11.781Z,1.15
2022-09-01T08:57:48.107Z,1.17
2022-09-01T09:00:27.034Z,0.85
2022-09-01T09:03:12.489Z,1.25
2022-09-01T09:06:05.245Z,0.85
2022-09-01T09:08:57.969Z,0.93
2022-09-01T09:11:48.470Z,1.00
2022-09-01T09:14:31.654Z,0.80
2022-09-01T09:17:02.315Z,1.05
2022-09-01T09:19:34.727Z,0.80
2022-09-01T09:22:11.329Z,0.80
2022-09-01T09:24:52.848Z,1.10
2022-09-01T09:27:26.722Z,0.70
2022-09-01T09:30:07.343Z,0.65
2022-09-01T09:33:25.072Z,0.88
2022-09-01T09:35:43.408Z,0.85
2022-09-01T09:38:29.026Z,1.15
2022-09-01T09:41:16.479Z,0.80
2022-09-01T09:43:50.926Z,0.70
2022-09-01T09:46:31.069Z,0.95
2022-09-01T09:49:13.701Z,0.95
2022-09-01T09:51:48.550Z,0.88
2022-09-01T09:54:24.737Z,1.15
2022-09-01T09:57:12.658Z,0.90
2022-09-01T09:59:58.782Z,0.90
2022-09-01T10:02:36.845Z,0.70
2022-09-01T10:05:30.149Z,0.80
2022-09-01T10:08:00.982Z,0.98
2022-09-01T10:10:40.473Z,0.73
2022-09-01T10:13:14.466Z,0.70
2022-09-01T10:15:51.311Z,1.15
2022-09-01T10:18:30.156Z,1.20
2022-09-01T10:21:04.368Z,0.93
2022-09-01T10:23:37.019Z,1.00
2022-09-01T10:26:11.997Z,1.35
2022-09-01T10:28:59.982Z,0.90
2022-09-01T10:31:32.394Z,1.10
2022-09-01T10:34:07.848Z,0.95
2022-09-01T10:36:39.209Z,1.35
2022-09-01T10:39:14.165Z,0.85
2022-09-01T10:42:00.404Z,1.23
2022-09-01T10:44:35.673Z,1.80
2022-09-01T10:47:14.752Z,2.35
2022-09-01T10:50:09.976Z,1.60
2022-09-01T10:52:59.941Z,1.08
2022-09-01T10:55:38.402Z,1.15
2022-09-01T11:01:46.885Z,1.67
2022-09-01T11:04:09.565Z,1.30
2022-09-01T11:07:13.295Z,1.33
2022-09-01T11:09:45.573Z,1.27
2022-09-01T11:12:39.247Z,1.27
2022-09-01T11:15:38.208Z,0.80
2022-09-01T11:18:14.899Z,0.93
2022-09-01T11:20:50.486Z,0.70
2022-09-01T11:23:30.433Z,1.02
2022-09-01T11:28:53.458Z,0.80
2022-09-01T11:31:33.360Z,1.00
2022-09-01T11:34:16.036Z,1.70
2022-09-01T11:36:59.449Z,1.30
2022-09-01T11:39:43.302Z,1.45
2022-09-01T11:42:21.160Z,1.30
2022-09-01T11:44:57.650Z,1.23
2022-09-01T11:47:30.349Z,0.90
2022-09-01T11:50:03.158Z,1.40
2022-09-01T11:52:36.731Z,1.27
2022-09-01T11:55:11.578Z,1.05
2022-09-01T11:57:43.024Z,1.08
2022-09-01T12:00:16.686Z,1.05
2022-09-01T12:02:49.582Z,1.40
2022-09-01T12:05:32.748Z,1.73
2022-09-01T12:08:03.535Z,1.73
2022-09-01T12:10:40.340Z,1.20
2022-09-01T12:13:12.113Z,1.08
2022-09-01T12:16:07.009Z,0.93
2022-09-01T12:18:35.977Z,1.17
2022-09-01T12:21:09.561Z,1.20
2022-09-01T12:23:43.235Z,1.10
2022-09-01T12:26:18.504Z,1.10
2022-09-01T12:28:49.921Z,1.13
2022-09-01T12:31:22.195Z,0.85
2022-09-01T12:33:53.781Z,0.73
2022-09-01T12:36:26.836Z,0.90
2022-09-01T12:38:58.311Z,0.98
2022-09-01T12:41:42.143Z,1.05
2022-09-01T12:44:31.793Z,0.90
2022-09-01T12:47:03.592Z,1.65
2022-09-01T12:49:48.041Z,0.90
2022-09-01T12:52:26.470Z,1.23
2022-09-01T12:55:47.334Z,0.70
2022-09-01T12:58:10.174Z,0.77
2022-09-01T13:00:57.870Z,0.88
2022-09-01T13:03:30.159Z,0.98
2022-09-01T13:06:01.986Z,1.25
2022-09-01T13:08:36.046Z,0.90
2022-09-01T13:11:11.403Z,0.80
2022-09-01T13:13:44.177Z,0.98
2022-09-01T13:16:15.429Z,0.95
2022-09-01T13:24:31.274Z,1.10
2022-09-01T13:29:54.981Z,1.20
2022-09-01T13:32:26.606Z,1.13
2022-09-01T13:34:57.238Z,0.95
2022-09-01T13:37:27.955Z,1.00
2022-09-01T13:39:58.266Z,0.90
2022-09-01T13:42:29.031Z,0.50
2022-09-01T13:45:01.596Z,0.93
2022-09-01T13:47:31.936Z,0.90
2022-09-01T13:50:08.514Z,1.27
2022-09-01T13:52:39.931Z,0.93
2022-09-01T13:55:12.484Z,0.90
2022-09-01T13:57:42.675Z,0.57
2022-09-01T14:00:17.260Z,0.70
2022-09-01T14:02:50.938Z,0.98
2022-09-01T14:07:51.820Z,0.63
2022-09-01T14:10:24.030Z,1.00
2022-09-01T14:12:54.189Z,1.48
2022-09-01T14:15:27.600Z,1.35
2022-09-01T14:18:00.436Z,0.80
2022-09-01T14:20:36.882Z,0.90
2022-09-01T14:23:08.450Z,0.93
2022-09-01T14:25:38.728Z,1.30
2022-09-01T14:28:09.046Z,1.02
2022-09-01T14:30:46.013Z,1.00
2022-09-01T14:33:16.455Z,0.50
2022-09-01T14:35:50.106Z,0.90
2022-09-01T14:38:20.468Z,0.80
2022-09-01T14:40:52.099Z,0.80
2022-09-01T14:43:22.975Z,0.90
2022-09-01T14:46:06.635Z,0.77
2022-09-01T14:48:37.210Z,0.82
2022-09-01T14:51:07.597Z,1.38
2022-09-01T14:53:37.859Z,1.13
2022-09-01T14:56:08.097Z,1.23
2022-09-01T14:58:38.745Z,1.27
2022-09-01T15:01:32.707Z,0.75
2022-09-01T15:04:02.271Z,1.02
2022-09-01T15:06:33.938Z,1.30
2022-09-01T15:09:04.384Z,0.80
2022-09-01T15:11:35.883Z,0.70
2022-09-01T15:14:13.981Z,1.00
2022-09-01T15:16:47.214Z,0.90
2022-09-01T15:19:17.600Z,0.60
2022-09-01T15:21:49.425Z,0.80
2022-09-01T15:24:19.429Z,0.93
2022-09-01T15:26:49.417Z,1.17
2022-09-01T15:29:19.655Z,0.90
2022-09-01T15:31:52.266Z,1.02
2022-09-01T15:34:22.264Z,0.90
2022-09-01T15:36:52.202Z,0.60
2022-09-01T15:39:22.457Z,0.82
2022-09-01T15:41:53.885Z,0.70
2022-09-01T15:44:24.069Z,0.90
2022-09-01T15:46:56.832Z,0.60
2022-09-01T15:49:27.069Z,0.93
2022-09-01T15:51:59.400Z,0.80
2022-09-01T15:54:30.838Z,0.63
2022-09-01T15:57:01.138Z,1.00
2022-09-01T15:59:32.563Z,0.70
2022-09-01T16:02:06.489Z,0.55
2022-09-01T16:04:36.842Z,0.88
2022-09-01T16:07:06.917Z,0.80
2022-09-01T16:09:37.276Z,0.73
2022-09-01T16:12:08.116Z,0.90
2022-09-01T16:14:38.349Z,0.70
2022-09-01T16:17:18.057Z,0.70
2022-09-01T16:19:56.037Z,0.70
2022-09-01T16:22:30.840Z,0.70
2022-09-01T16:25:04.339Z,0.77
2022-09-01T16:27:36.859Z,0.75
2022-09-01T16:30:09.032Z,0.80
2022-09-01T16:32:46.552Z,0.60
2022-09-01T16:35:17.702Z,0.90
2022-09-01T16:37:51.813Z,0.50
2022-09-01T16:40:30.675Z,0.70
2022-09-01T16:43:08.338Z,0.80
2022-09-01T16:45:49.623Z,0.60
2022-09-01T16:48:27.987Z,0.52
2022-09-01T16:51:01.283Z,0.60
2022-09-01T16:53:37.759Z,0.50
2022-09-01T16:56:11.762Z,0.70
2022-09-01T16:58:49.224Z,0.75
2022-09-01T17:01:24.466Z,0.40
2022-09-01T17:04:05.609Z,0.60
2022-09-01T17:06:42.518Z,0.65
2022-09-01T17:09:15.153Z,0.77
2022-09-01T17:11:51.744Z,0.70
2022-09-01T17:14:27.797Z,0.88
2022-09-01T17:17:02.309Z,0.95
2022-09-01T17:19:35.265Z,0.70
2022-09-01T17:22:08.253Z,0.80
2022-09-01T17:24:40.428Z,0.80
2022-09-01T17:27:14.570Z,0.57
2022-09-01T17:29:49.959Z,0.47
2022-09-01T17:32:32.805Z,0.90
2022-09-01T17:35:15.970Z,1.10
2022-09-01T17:37:53.061Z,0.70
2022-09-01T17:40:25.572Z,0.90
2022-09-01T17:43:01.104Z,0.60
2022-09-01T17:45:33.876Z,0.75
2022-09-01T17:48:15.270Z,0.70
2022-09-01T17:51:02.087Z,0.88
2022-09-01T17:53:43.371Z,0.93
2022-09-01T17:56:22.004Z,1.17
2022-09-01T17:58:57.878Z,1.25
2022-09-01T18:01:36.405Z,0.80
2022-09-01T18:04:17.556Z,0.88
2022-09-01T18:06:52.323Z,0.63
2022-09-01T18:09:25.921Z,0.80
2022-09-01T18:12:02.609Z,0.95
2022-09-01T18:14:36.488Z,0.60
2022-09-01T18:19:40.125Z,0.60
2022-09-01T18:22:17.594Z,0.50
2022-09-01T18:24:53.117Z,0.65
2022-09-01T18:27:24.663Z,0.85
2022-09-01T18:29:56.942Z,1.03
2022-09-01T18:32:41.469Z,0.60
2022-09-01T18:35:26.740Z,0.60
2022-09-01T18:38:11.907Z,0.60
2022-09-01T18:40:53.887Z,0.63
2022-09-01T18:43:29.264Z,0.82
2022-09-01T18:46:02.713Z,0.60
2022-09-01T18:48:49.214Z,0.47
2022-09-01T18:51:24.777Z,0.47
2022-09-01T18:54:00.743Z,0.57
2022-09-01T18:56:39.513Z,0.60
2022-09-01T18:59:36.708Z,0.73
2022-09-01T19:02:15.776Z,0.60
2022-09-01T19:04:46.808Z,0.65
2022-09-01T19:07:21.109Z,0.60
2022-09-01T19:09:59.145Z,0.40
2022-09-01T19:12:38.168Z,0.70
2022-09-01T19:15:12.286Z,0.52
2022-09-01T19:18:12.642Z,0.75
2022-09-01T19:20:49.997Z,0.98
2022-09-01T19:23:24.244Z,0.80
2022-09-01T19:26:04.789Z,0.45
2022-09-01T19:28:43.147Z,0.60
2022-09-01T19:31:18.887Z,0.50
2022-09-01T19:33:53.124Z,0.70
2022-09-01T19:36:29.440Z,0.60
2022-09-01T19:39:00.185Z,0.70
2022-09-01T19:41:37.466Z,0.65
2022-09-01T19:44:13.763Z,0.80
2022-09-01T19:46:49.516Z,0.60
2022-09-01T19:49:25.151Z,0.57
2022-09-01T19:52:02.986Z,1.02
2022-09-01T19:54:44.361Z,0.40
2022-09-01T19:57:21.512Z,0.45
2022-09-01T19:59:57.384Z,0.70
2022-09-01T20:02:32.598Z,0.60
2022-09-01T20:05:07.711Z,0.60
2022-09-01T20:07:43.147Z,0.80
2022-09-01T20:10:55.358Z,0.45
2022-09-01T20:13:43.839Z,0.60
2022-09-01T20:16:17.581Z,0.88
2022-09-01T20:18:50.299Z,0.80
2022-09-01T20:21:23.650Z,0.77
2022-09-01T20:23:56.200Z,1.17
2022-09-01T20:26:28.364Z,0.90
2022-09-01T20:29:06.787Z,0.40
2022-09-01T20:31:40.700Z,0.70
2022-09-01T20:34:13.556Z,0.68
2022-09-01T20:36:46.502Z,0.80
2022-09-01T20:39:33.505Z,0.77
2022-09-01T20:42:08.520Z,0.82
2022-09-01T20:44:50.362Z,0.70
2022-09-01T20:47:20.329Z,0.90
2022-09-01T20:49:50.306Z,0.52
2022-09-01T20:52:29.951Z,0.50
2022-09-01T20:55:02.573Z,0.60
2022-09-01T20:57:48.749Z,0.80
2022-09-01T21:00:25.809Z,0.70
2022-09-01T21:03:04.999Z,0.50
2022-09-01T21:05:45.407Z,0.57
2022-09-01T21:08:37.152Z,0.77
2022-09-01T21:11:27.361Z,0.40
2022-09-01T21:14:07.068Z,0.70
2022-09-01T21:16:50.595Z,0.60
2022-09-01T21:19:29.310Z,0.50
2022-09-01T21:22:07.720Z,0.85
2022-09-01T21:24:38.355Z,0.55
2022-09-01T21:27:13.074Z,0.50
2022-09-01T21:29:58.262Z,0.80
2022-09-01T21:32:33.683Z,0.50
2022-09-01T21:35:04.585Z,0.70
2022-09-01T21:37:34.701Z,0.70
2022-09-01T21:40:05.078Z,0.57
2022-09-01T21:42:37.660Z,0.82
2022-09-01T21:45:09.760Z,0.93
2022-09-01T21:47:43.474Z,0.85
2022-09-01T21:50:14.102Z,0.63
2022-09-01T21:52:44.217Z,0.50
2022-09-01T21:55:16.628Z,1.00
2022-09-01T21:57:48.769Z,0.65
2022-09-01T22:00:21.740Z,0.70
2022-09-01T22:02:57.609Z,0.68
2022-09-01T22:05:28.774Z,0.73
2022-09-01T22:08:01.480Z,0.95
2022-09-01T22:10:33.393Z,0.77
2022-09-01T22:13:04.507Z,0.68
2022-09-01T22:15:34.657Z,0.85
2022-09-01T22:18:07.438Z,0.80
2022-09-01T22:20:37.416Z,0.77
2022-09-01T22:23:07.657Z,1.10
2022-09-01T22:25:43.245Z,0.90
2022-09-01T22:28:13.900Z,0.88
2022-09-01T22:30:47.489Z,0.80
2022-09-01T22:33:20.303Z,0.55
2022-09-01T22:35:52.466Z,0.57
2022-09-01T22:38:23.427Z,0.60
2022-09-01T22:40:56.532Z,0.77
2022-09-01T22:43:27.737Z,0.70
2022-09-01T22:45:59.560Z,0.70
2022-09-01T22:48:32.134Z,0.63
2022-09-01T22:51:06.814Z,0.43
2022-09-01T22:53:37.649Z,0.52
2022-09-01T22:56:14.119Z,0.93
2022-09-01T22:58:44.938Z,0.60
2022-09-01T23:01:18.137Z,0.68
2022-09-01T23:03:52.129Z,0.40
2022-09-01T23:06:27.992Z,0.60
2022-09-01T23:08:58.781Z,0.60
2022-09-01T23:11:29.569Z,0.52
2022-09-01T23:13:59.892Z,0.50
2022-09-01T23:16:30.317Z,0.85
2022-09-01T23:19:03.178Z,1.00
2022-09-01T23:21:35.853Z,0.77
2022-09-01T23:24:06.854Z,0.70
2022-09-01T23:26:37.592Z,0.55
2022-09-01T23:29:08.178Z,0.80
2022-09-01T23:31:41.273Z,0.88
2022-09-01T23:34:13.985Z,0.73
2022-09-01T23:36:44.464Z,0.73
2022-09-01T23:39:14.607Z,0.70
2022-09-01T23:41:45.044Z,0.50
2022-09-01T23:44:16.005Z,0.60
2022-09-01T23:46:47.805Z,0.50
2022-09-01T23:49:21.789Z,0.50
2022-09-01T23:51:51.806Z,0.40
2022-09-01T23:54:21.766Z,0.60
2022-09-01T23:56:51.981Z,0.47
2022-09-01T23:59:27.284Z,0.40
